Newport, WA

10:57 AM PDT on May 26, 2017 (GMT -0700)
Italian settlement | | Change Station

Elev 2139 ft 48.18 °N, 116.87 °W | Updated 1 second ago

Clear
Clear
70.2 °F
Feels Like 77 °F
N
0.0
Wind Variable Wind from West
Gusts 0.7 mph

Today
High -- | Low -- °F
--% Chance of Precip.
Yesterday
High -- | Low -- °F
Precip. -- in
Pressure 29.95 in
Visibility 10.0 miles
Clouds Clear
Heat Index 77 °F
Dew Point 44 °F
Humidity 39%
Rainfall 0.00 in
Snow Depth Not available.
4:56 AM 8:34 PM
New Moon, 1% visible
METAR KDEW 261753Z AUTO 00000KT 10SM CLR 19/03 A2995 RMK AO2 SLP140 T01890033 10189 20056 51001
Pressure 29.95 in
Visibility 10.0 miles
Clouds Clear
Heat Index 77 °F
Dew Point 44 °F
Humidity 39%
Rainfall 0.00 in
Snow Depth Not available.
4:56 AM 8:34 PM
New Moon, 1% visible
METAR KDEW 261753Z AUTO 00000KT 10SM CLR 19/03 A2995 RMK AO2 SLP140 T01890033 10189 20056 51001

Get Severe Weather Alerts

Thanks for signing up!

Be on the lookout for a verification email in your inbox.

You'll start receiving the daily forecast at 6 AM.

×

10-Day Weather Forecast

Almanac

Astronomy

May. 26, 2017 Rise Set
Actual Time
Civil Twilight
Nautical Twilight
Astronomical Twilight
Moon
Length of Visible Light
Length of Day
Tomorrow will be .
, % of the Moon is Illuminated

Today's Extremes

State Highs State Lows

Community

WunderPhotos

Category 6

Welcome to Category 6. This is the collective home for Weather Underground's featured writeups by Dr. Jeff Masters (right), Bob Henson (left), Chris Burt, and other regular contributors.

Nearby

Air Quality

  Air Quality AQ Index Pollutant
Not available.

Snow Depth

Station Depth Elevation

Earthquake Activity

City Distance Mag. Time & Date
Minimum magnitude displayed is 2.5.

Coastal Water Temperatures

Place Temperature

Stations

Nearby Weather Stations

Station Location Temp. Windchill Dew Point Humidity Wind Precip. Elev Updated Type
                   

Watches & Warnings

There are currently no watches in effect.